createdAt,value
2022-08-24T00:00:18.674Z,95556.25
2022-08-24T00:03:02.904Z,95558.86
2022-08-24T00:05:30.513Z,95565.61
2022-08-24T00:07:57.236Z,95569.94
2022-08-24T00:10:26.204Z,95580.92
2022-08-24T00:12:53.425Z,95589.16
2022-08-24T00:15:21.210Z,95588.52
2022-08-24T00:17:48.155Z,95592.24
2022-08-24T00:20:15.370Z,95585.68
2022-08-24T00:22:43.341Z,95588.85
2022-08-24T00:25:12.994Z,95583.74
2022-08-24T00:27:41.546Z,95579.48
2022-08-24T00:30:14.967Z,95578.13
2022-08-24T00:32:43.315Z,95573.52
2022-08-24T00:35:12.025Z,95574.08
2022-08-24T00:37:40.514Z,95571.88
2022-08-24T00:40:14.352Z,95574.84
2022-08-24T00:42:41.345Z,95581.41
2022-08-24T00:45:12.031Z,95586.31
2022-08-24T00:47:54.723Z,95590.80
2022-08-24T00:50:44.578Z,95595.31
2022-08-24T00:53:18.007Z,95601.52
2022-08-24T00:55:51.573Z,95604.41
2022-08-24T00:58:24.374Z,95604.89
2022-08-24T01:00:57.984Z,95609.52
2022-08-24T01:03:27.478Z,95611.91
2022-08-24T01:05:56.202Z,95612.06
2022-08-24T01:08:24.467Z,95608.75
2022-08-24T01:11:11.844Z,95604.64
2022-08-24T01:13:44.578Z,95601.05
2022-08-24T01:16:13.883Z,95595.80
2022-08-24T01:18:50.427Z,95593.20
2022-08-24T01:21:20.797Z,95594.48
2022-08-24T01:23:57.557Z,95585.54
2022-08-24T01:26:42.398Z,95581.75
2022-08-24T01:29:20.432Z,95579.37
2022-08-24T01:31:51.727Z,95581.73
2022-08-24T01:34:19.028Z,95577.57
2022-08-24T01:36:55.578Z,95572.06
2022-08-24T01:39:37.702Z,95568.61
2022-08-24T01:42:05.244Z,95566.71
2022-08-24T01:44:37.261Z,95565.16
2022-08-24T01:47:07.567Z,95561.86
2022-08-24T01:49:39.433Z,95568.31
2022-08-24T01:52:07.735Z,95561.45
2022-08-24T01:54:35.194Z,95554.84
2022-08-24T01:57:03.100Z,95552.88
2022-08-24T01:59:31.992Z,95552.73
2022-08-24T02:02:06.081Z,95546.84
2022-08-24T02:04:36.462Z,95547.30
2022-08-24T02:07:03.830Z,95552.52
2022-08-24T02:09:32.817Z,95554.05
2022-08-24T02:12:01.170Z,95551.85
2022-08-24T02:14:34.804Z,95550.91
2022-08-24T02:17:05.424Z,95548.69
2022-08-24T02:19:32.864Z,95546.00
2022-08-24T02:22:00.550Z,95541.58
2022-08-24T02:24:28.913Z,95538.42
2022-08-24T02:26:56.193Z,95532.24
2022-08-24T02:29:23.816Z,95525.74
2022-08-24T02:31:51.328Z,95526.96
2022-08-24T02:34:18.463Z,95526.64
2022-08-24T02:36:46.309Z,95518.48
2022-08-24T02:39:13.878Z,95515.85
2022-08-24T02:41:41.349Z,95510.94
2022-08-24T02:44:08.297Z,95516.73
2022-08-24T02:46:36.261Z,95515.80
2022-08-24T02:49:11.095Z,95511.63
2022-08-24T02:51:45.555Z,95512.08
2022-08-24T02:54:18.334Z,95507.49
2022-08-24T02:56:47.701Z,95504.61
2022-08-24T02:59:15.897Z,95503.68
2022-08-24T03:01:43.449Z,95507.52
2022-08-24T03:04:10.418Z,95503.14
2022-08-24T03:06:37.628Z,95502.19
2022-08-24T03:09:04.813Z,95503.48
2022-08-24T03:11:31.927Z,95501.90
2022-08-24T03:13:59.239Z,95507.14
2022-08-24T03:16:28.782Z,95510.91
2022-08-24T03:18:56.087Z,95512.71
2022-08-24T03:21:25.280Z,95511.14
2022-08-24T03:23:52.388Z,95513.56
2022-08-24T03:26:20.063Z,95511.02
2022-08-24T03:28:47.131Z,95508.27
2022-08-24T03:31:17.886Z,95512.84
2022-08-24T03:33:45.064Z,95513.59
2022-08-24T03:36:14.361Z,95519.45
2022-08-24T03:38:42.888Z,95522.51
2022-08-24T03:41:11.032Z,95525.15
2022-08-24T03:43:46.001Z,95531.52
2022-08-24T03:46:16.579Z,95534.12
2022-08-24T03:48:44.323Z,95539.79
2022-08-24T03:51:14.700Z,95536.58
2022-08-24T03:53:42.359Z,95536.92
2022-08-24T03:56:11.339Z,95538.98
2022-08-24T03:58:41.505Z,95542.05
2022-08-24T04:01:09.153Z,95546.17
2022-08-24T04:03:38.473Z,95545.74
2022-08-24T04:06:07.458Z,95543.48
2022-08-24T04:08:35.655Z,95542.89
2022-08-24T04:11:04.357Z,95537.14
2022-08-24T04:13:31.830Z,95540.92
2022-08-24T04:16:05.144Z,95541.52
2022-08-24T04:18:32.117Z,95553.55
2022-08-24T04:20:59.404Z,95559.55
2022-08-24T04:23:46.481Z,95569.25
2022-08-24T04:26:16.767Z,95577.23
2022-08-24T04:29:08.165Z,95579.04
2022-08-24T04:31:37.669Z,95576.13
2022-08-24T04:34:06.351Z,95568.92
2022-08-24T04:36:34.399Z,95570.91
2022-08-24T04:39:03.091Z,95574.59
2022-08-24T04:41:50.362Z,95574.77
2022-08-24T04:44:18.714Z,95572.17
2022-08-24T04:46:45.502Z,95572.48
2022-08-24T04:49:12.319Z,95569.65
2022-08-24T04:51:39.259Z,95572.16
2022-08-24T04:54:07.937Z,95572.25
2022-08-24T04:56:36.143Z,95575.97
2022-08-24T04:59:04.939Z,95570.89
2022-08-24T05:01:34.921Z,95568.38
2022-08-24T05:04:04.842Z,95571.99
2022-08-24T05:06:33.422Z,95573.16
2022-08-24T05:09:02.048Z,95573.73
2022-08-24T05:11:29.681Z,95573.77
2022-08-24T05:13:57.629Z,95576.92
2022-08-24T05:16:25.943Z,95575.06
2022-08-24T05:18:54.815Z,95570.66
2022-08-24T05:21:24.519Z,95574.95
2022-08-24T05:23:53.111Z,95573.41
2022-08-24T05:26:27.895Z,95574.97
2022-08-24T05:28:58.069Z,95573.05
2022-08-24T05:31:29.918Z,95572.98
2022-08-24T05:34:00.504Z,95572.14
2022-08-24T05:36:30.373Z,95568.55
2022-08-24T05:39:00.290Z,95569.59
2022-08-24T05:41:28.591Z,95571.08
2022-08-24T05:44:06.859Z,95575.75
2022-08-24T05:46:35.049Z,95577.52
2022-08-24T05:49:02.092Z,95573.00
2022-08-24T05:51:35.690Z,95575.91
2022-08-24T05:54:08.907Z,95581.52
2022-08-24T05:56:56.848Z,95585.94
2022-08-24T05:59:24.019Z,95595.14
2022-08-24T06:01:53.048Z,95598.21
2022-08-24T06:04:20.559Z,95591.46
2022-08-24T06:06:49.421Z,95592.88
2022-08-24T06:09:17.620Z,95595.10
2022-08-24T06:11:46.541Z,95597.83
2022-08-24T06:14:17.072Z,95598.67
2022-08-24T06:16:55.549Z,95602.90
2022-08-24T06:19:22.813Z,95603.30
2022-08-24T06:21:52.015Z,95606.77
2022-08-24T06:24:43.982Z,95605.87
2022-08-24T06:27:22.283Z,95604.39
2022-08-24T06:29:49.927Z,95601.84
2022-08-24T06:32:52.100Z,95598.45
2022-08-24T06:35:26.675Z,95595.55
2022-08-24T06:37:56.936Z,95594.04
2022-08-24T06:40:25.893Z,95598.55
2022-08-24T06:42:53.515Z,95593.52
2022-08-24T06:45:34.188Z,95593.29
2022-08-24T06:48:01.617Z,95587.81
2022-08-24T06:50:28.992Z,95587.70
2022-08-24T06:52:56.682Z,95593.87
2022-08-24T06:55:24.401Z,95592.13
2022-08-24T06:57:52.737Z,95592.92
2022-08-24T07:00:21.280Z,95596.67
2022-08-24T07:02:48.372Z,95599.80
2022-08-24T07:05:16.299Z,95604.33
2022-08-24T07:08:07.782Z,95603.77
2022-08-24T07:10:35.187Z,95604.83
2022-08-24T07:13:03.658Z,95601.27
2022-08-24T07:15:31.052Z,95602.08
2022-08-24T07:18:09.652Z,95608.30
2022-08-24T07:20:37.668Z,95614.34
2022-08-24T07:23:10.931Z,95621.30
2022-08-24T07:25:38.065Z,95622.15
2022-08-24T07:28:09.850Z,95623.45
2022-08-24T07:30:40.265Z,95624.73
2022-08-24T07:33:08.769Z,95626.65
2022-08-24T07:35:36.844Z,95631.67
2022-08-24T07:38:05.741Z,95633.89
2022-08-24T07:40:55.821Z,95634.63
2022-08-24T07:43:21.905Z,95637.61
2022-08-24T07:45:51.821Z,95635.48
2022-08-24T07:48:19.049Z,95637.02
2022-08-24T07:50:46.822Z,95641.31
2022-08-24T07:53:18.098Z,95645.33
2022-08-24T07:55:55.968Z,95651.04
2022-08-24T07:58:24.209Z,95652.98
2022-08-24T08:00:51.651Z,95655.06
2022-08-24T08:03:18.656Z,95659.90
2022-08-24T08:05:45.702Z,95662.68
2022-08-24T08:08:12.721Z,95659.18
2022-08-24T08:10:40.456Z,95661.86
2022-08-24T08:13:07.458Z,95662.67
2022-08-24T08:15:34.702Z,95662.92
2022-08-24T08:18:05.553Z,95660.07
2022-08-24T08:20:34.204Z,95667.06
2022-08-24T08:23:19.602Z,95665.04
2022-08-24T08:26:01.609Z,95668.77
2022-08-24T08:28:39.162Z,95664.50
2022-08-24T08:31:06.886Z,95670.63
2022-08-24T08:33:37.561Z,95668.70
2022-08-24T08:36:09.841Z,95674.52
2022-08-24T08:38:42.510Z,95678.08
2022-08-24T08:41:39.476Z,95686.28
2022-08-24T08:44:27.127Z,95690.20
2022-08-24T08:47:02.789Z,95692.29
2022-08-24T08:50:16.067Z,95693.19
2022-08-24T08:53:04.533Z,95699.79
2022-08-24T08:55:45.306Z,95701.89
2022-08-24T08:58:31.402Z,95699.96
2022-08-24T09:01:06.945Z,95707.73
2022-08-24T09:03:55.263Z,95704.19
2022-08-24T09:07:00.475Z,95709.41
2022-08-24T09:10:23.609Z,95706.61
2022-08-24T09:12:58.005Z,95703.35
2022-08-24T09:15:27.666Z,95704.03
2022-08-24T09:18:30.058Z,95701.14
2022-08-24T09:21:13.763Z,95694.70
2022-08-24T09:23:49.821Z,95698.77
2022-08-24T09:26:28.836Z,95696.24
2022-08-24T09:29:18.328Z,95699.64
2022-08-24T09:32:02.447Z,95700.70
2022-08-24T09:34:56.545Z,95700.59
2022-08-24T09:37:41.614Z,95701.08
2022-08-24T09:40:37.501Z,95695.73
2022-08-24T09:43:04.498Z,95688.19
2022-08-24T09:46:00.082Z,95687.74
2022-08-24T09:48:57.420Z,95679.22
2022-08-24T09:51:58.944Z,95678.60
2022-08-24T09:54:47.530Z,95680.67
2022-08-24T09:57:44.191Z,95673.09
2022-08-24T10:00:39.281Z,95666.90
2022-08-24T10:03:18.176Z,95654.81
2022-08-24T10:06:14.892Z,95653.08
2022-08-24T10:09:06.829Z,95657.41
2022-08-24T10:12:01.449Z,95656.70
2022-08-24T10:15:20.496Z,95660.45
2022-08-24T10:18:15.218Z,95658.42
2022-08-24T10:20:47.003Z,95660.65
2022-08-24T10:23:58.393Z,95662.60
2022-08-24T10:26:38.212Z,95665.36
2022-08-24T10:29:32.137Z,95665.40
2022-08-24T10:32:51.883Z,95666.31
2022-08-24T10:35:25.588Z,95665.27
2022-08-24T10:38:40.810Z,95662.99
2022-08-24T10:41:16.828Z,95659.58
2022-08-24T10:44:22.380Z,95655.07
2022-08-24T10:46:59.393Z,95655.86
2022-08-24T10:49:35.424Z,95651.59
2022-08-24T10:52:39.866Z,95651.73
2022-08-24T10:55:24.288Z,95658.05
2022-08-24T10:58:03.655Z,95649.27
2022-08-24T11:00:31.119Z,95645.69
2022-08-24T11:03:09.518Z,95645.95
2022-08-24T11:05:47.193Z,95646.55
2022-08-24T11:08:33.346Z,95647.33
2022-08-24T11:11:06.280Z,95654.89
2022-08-24T11:13:36.323Z,95646.33
2022-08-24T11:16:05.486Z,95648.71
2022-08-24T11:18:53.976Z,95650.26
2022-08-24T11:21:57.888Z,95653.61
2022-08-24T11:24:43.576Z,95656.70
2022-08-24T11:27:16.767Z,95659.23
2022-08-24T11:29:49.546Z,95655.78
2022-08-24T11:32:54.299Z,95655.36
2022-08-24T11:35:36.732Z,95653.86
2022-08-24T11:38:30.063Z,95655.69
2022-08-24T11:41:02.594Z,95653.92
2022-08-24T11:43:56.949Z,95659.95
2022-08-24T11:46:42.777Z,95664.20
2022-08-24T11:49:22.166Z,95662.63
2022-08-24T11:51:51.999Z,95660.58
2022-08-24T11:54:50.352Z,95662.69
2022-08-24T11:57:32.297Z,95668.48
2022-08-24T12:00:18.352Z,95666.22
2022-08-24T12:02:55.017Z,95663.16
2022-08-24T12:05:27.987Z,95664.44
2022-08-24T12:08:20.869Z,95663.91
2022-08-24T12:11:08.405Z,95661.95
2022-08-24T12:13:39.262Z,95659.45
2022-08-24T12:16:20.165Z,95664.86
2022-08-24T12:19:00.243Z,95667.20
2022-08-24T12:21:32.320Z,95669.21
2022-08-24T12:24:14.948Z,95669.31
2022-08-24T12:26:56.529Z,95667.36
2022-08-24T12:29:48.668Z,95668.92
2022-08-24T12:32:23.837Z,95663.05
2022-08-24T12:34:58.926Z,95663.48
2022-08-24T12:37:48.757Z,95658.65
2022-08-24T12:40:39.854Z,95654.95
2022-08-24T12:43:22.775Z,95653.30
2022-08-24T12:45:50.989Z,95654.70
2022-08-24T12:48:18.101Z,95654.95
2022-08-24T12:50:50.636Z,95657.60
2022-08-24T12:54:01.274Z,95656.60
2022-08-24T12:57:06.596Z,95653.66
2022-08-24T12:59:36.520Z,95650.63
2022-08-24T13:02:18.979Z,95647.93
2022-08-24T13:04:48.974Z,95647.64
2022-08-24T13:07:18.781Z,95648.06
2022-08-24T13:09:48.894Z,95646.66
2022-08-24T13:12:38.152Z,95646.80
2022-08-24T13:15:27.735Z,95644.71
2022-08-24T13:18:09.105Z,95640.73
2022-08-24T13:20:36.410Z,95642.44
2022-08-24T13:23:05.905Z,95648.89
2022-08-24T13:25:50.334Z,95648.08
2022-08-24T13:28:20.571Z,95647.05
2022-08-24T13:31:03.602Z,95649.20
2022-08-24T13:33:48.671Z,95648.77
2022-08-24T13:36:30.809Z,95646.73
2022-08-24T13:39:12.992Z,95651.98
2022-08-24T13:42:19.231Z,95650.86
2022-08-24T13:45:23.208Z,95648.70
2022-08-24T13:47:56.074Z,95646.41
2022-08-24T13:50:59.208Z,95649.02
2022-08-24T13:54:06.407Z,95655.02
2022-08-24T13:57:12.813Z,95656.13
2022-08-24T14:00:17.360Z,95654.35
2022-08-24T14:03:15.691Z,95655.30
2022-08-24T14:05:43.240Z,95650.98
2022-08-24T14:08:36.960Z,95650.31
2022-08-24T14:11:06.550Z,95648.30
2022-08-24T14:14:05.346Z,95648.33
2022-08-24T14:17:03.210Z,95651.61
2022-08-24T14:19:43.149Z,95650.45
2022-08-24T14:22:09.809Z,95646.56
2022-08-24T14:24:36.653Z,95645.60
2022-08-24T14:27:09.198Z,95648.12
2022-08-24T14:29:46.107Z,95643.34
2022-08-24T14:32:28.231Z,95641.88
2022-08-24T14:35:16.662Z,95643.64
2022-08-24T14:38:12.458Z,95644.40
2022-08-24T14:41:03.102Z,95644.04
2022-08-24T14:44:03.170Z,95645.73
2022-08-24T14:46:45.194Z,95639.48
2022-08-24T14:49:27.457Z,95640.30
2022-08-24T14:52:23.126Z,95637.07
2022-08-24T14:55:18.187Z,95640.50
2022-08-24T14:58:00.214Z,95641.54
2022-08-24T15:01:02.176Z,95642.27
2022-08-24T15:03:47.993Z,95644.78
2022-08-24T15:06:31.197Z,95640.98
2022-08-24T15:09:08.858Z,95641.91
2022-08-24T15:11:39.164Z,95639.13
2022-08-24T15:14:37.448Z,95642.16
2022-08-24T15:17:11.970Z,95644.24
2022-08-24T15:20:07.590Z,95644.50
2022-08-24T15:22:48.771Z,95643.33
2022-08-24T15:25:27.721Z,95644.22
2022-08-24T15:28:25.661Z,95640.65
2022-08-24T15:31:05.437Z,95639.17
2022-08-24T15:33:33.186Z,95641.90
2022-08-24T15:36:18.790Z,95638.20
2022-08-24T15:38:46.130Z,95637.24
2022-08-24T15:41:19.022Z,95645.17
2022-08-24T15:44:04.724Z,95647.93
2022-08-24T15:46:31.748Z,95648.12
2022-08-24T15:49:06.233Z,95651.63
2022-08-24T15:51:49.913Z,95647.98
2022-08-24T15:54:37.484Z,95650.53
2022-08-24T15:57:25.281Z,95649.75
2022-08-24T15:59:54.626Z,95646.10
2022-08-24T16:02:29.358Z,95645.02
2022-08-24T16:05:09.981Z,95648.92
2022-08-24T16:08:06.883Z,95650.10
2022-08-24T16:10:40.021Z,95647.16
2022-08-24T16:13:18.951Z,95647.64
2022-08-24T16:16:06.274Z,95645.08
2022-08-24T16:18:45.411Z,95648.55
2022-08-24T16:21:23.823Z,95652.48
2022-08-24T16:24:02.855Z,95658.06
2022-08-24T16:26:51.914Z,95662.31
2022-08-24T16:29:37.194Z,95666.81
2022-08-24T16:32:05.005Z,95663.97
2022-08-24T16:34:32.282Z,95669.27
2022-08-24T16:36:59.574Z,95670.45
2022-08-24T16:39:27.150Z,95670.73
2022-08-24T16:41:58.053Z,95671.98
2022-08-24T16:44:33.278Z,95678.77
2022-08-24T16:47:00.611Z,95679.48
2022-08-24T16:49:27.518Z,95683.59
2022-08-24T16:51:54.551Z,95680.20
2022-08-24T16:54:21.334Z,95677.65
2022-08-24T16:56:48.211Z,95675.66
2022-08-24T16:59:22.004Z,95676.11
2022-08-24T17:01:49.514Z,95674.33
2022-08-24T17:04:16.699Z,95674.77
2022-08-24T17:06:49.281Z,95681.39
2022-08-24T17:09:18.513Z,95682.17
2022-08-24T17:11:46.649Z,95683.10
2022-08-24T17:14:15.361Z,95689.36
2022-08-24T17:16:42.957Z,95688.83
2022-08-24T17:19:13.535Z,95687.05
2022-08-24T17:21:40.997Z,95689.52
2022-08-24T17:24:09.370Z,95687.95
2022-08-24T17:26:37.629Z,95690.66
2022-08-24T17:29:13.932Z,95691.73
2022-08-24T17:31:49.362Z,95693.04
2022-08-24T17:34:18.828Z,95692.93
2022-08-24T17:36:46.850Z,95699.00
2022-08-24T17:39:14.299Z,95698.23
2022-08-24T17:41:41.227Z,95700.15
2022-08-24T17:44:10.463Z,95700.27
2022-08-24T17:46:40.140Z,95708.74
2022-08-24T17:49:11.673Z,95709.70
2022-08-24T17:51:38.920Z,95714.45
2022-08-24T17:54:08.354Z,95718.67
2022-08-24T17:56:37.662Z,95716.93
2022-08-24T17:59:25.087Z,95722.64
2022-08-24T18:02:04.657Z,95720.77
2022-08-24T18:04:33.578Z,95726.48
2022-08-24T18:07:03.292Z,95726.89
2022-08-24T18:09:37.138Z,95727.46
2022-08-24T18:12:06.995Z,95727.48
2022-08-24T18:14:34.719Z,95731.50
2022-08-24T18:17:09.245Z,95729.08
2022-08-24T18:19:37.039Z,95734.36
2022-08-24T18:22:05.202Z,95735.58
2022-08-24T18:24:33.055Z,95736.39
2022-08-24T18:27:10.304Z,95738.30
2022-08-24T18:29:40.189Z,95739.52
2022-08-24T18:32:07.180Z,95743.20
2022-08-24T18:34:34.977Z,95744.68
2022-08-24T18:37:01.925Z,95744.58
2022-08-24T18:39:28.809Z,95741.71
2022-08-24T18:41:59.170Z,95744.27
2022-08-24T18:44:31.426Z,95751.08
2022-08-24T18:46:59.035Z,95750.93
2022-08-24T18:49:26.609Z,95747.30
2022-08-24T18:51:55.060Z,95746.33
2022-08-24T18:54:31.450Z,95741.86
2022-08-24T18:56:58.491Z,95743.81
2022-08-24T18:59:25.308Z,95744.98
2022-08-24T19:02:11.181Z,95749.42
2022-08-24T19:04:46.897Z,95747.52
2022-08-24T19:07:14.747Z,95745.64
2022-08-24T19:09:42.166Z,95748.95
2022-08-24T19:12:09.871Z,95749.06
2022-08-24T19:14:36.948Z,95752.44
2022-08-24T19:17:05.698Z,95753.30
2022-08-24T19:19:33.218Z,95754.73
2022-08-24T19:22:01.954Z,95761.16
2022-08-24T19:24:30.799Z,95761.27
2022-08-24T19:27:01.877Z,95760.81
2022-08-24T19:29:54.776Z,95765.32
2022-08-24T19:32:21.998Z,95769.45
2022-08-24T19:34:51.330Z,95767.98
2022-08-24T19:37:19.072Z,95766.48
2022-08-24T19:39:46.304Z,95769.89
2022-08-24T19:42:16.345Z,95769.63
2022-08-24T19:45:02.134Z,95771.00
2022-08-24T19:47:33.829Z,95772.95
2022-08-24T19:50:01.909Z,95777.05
2022-08-24T19:52:32.084Z,95774.42
2022-08-24T19:54:59.139Z,95777.72
2022-08-24T19:57:48.410Z,95783.23
2022-08-24T20:00:18.357Z,95786.77
2022-08-24T20:02:47.115Z,95789.64
2022-08-24T20:05:15.609Z,95790.45
2022-08-24T20:07:44.346Z,95790.44
2022-08-24T20:10:13.260Z,95792.38
2022-08-24T20:12:41.184Z,95790.27
2022-08-24T20:15:08.917Z,95792.68
2022-08-24T20:17:36.482Z,95795.77
2022-08-24T20:20:05.869Z,95797.33
2022-08-24T20:22:33.036Z,95796.11
2022-08-24T20:24:59.837Z,95794.41
2022-08-24T20:27:27.544Z,95796.67
2022-08-24T20:29:55.124Z,95795.09
2022-08-24T20:32:22.777Z,95790.78
2022-08-24T20:34:49.743Z,95788.70
2022-08-24T20:37:21.105Z,95788.88
2022-08-24T20:39:48.500Z,95786.31
2022-08-24T20:42:21.299Z,95793.35
2022-08-24T20:44:49.900Z,95798.20
2022-08-24T20:47:17.355Z,95798.43
2022-08-24T20:49:44.523Z,95804.27
2022-08-24T20:52:11.411Z,95801.34
2022-08-24T20:54:39.900Z,95798.77
2022-08-24T20:57:10.906Z,95801.83
2022-08-24T20:59:37.686Z,95802.19
2022-08-24T21:02:05.282Z,95798.84
2022-08-24T21:04:32.232Z,95796.60
2022-08-24T21:06:59.096Z,95799.29
2022-08-24T21:09:26.228Z,95798.64
2022-08-24T21:11:53.207Z,95801.01
2022-08-24T21:14:20.121Z,95800.90
2022-08-24T21:16:47.466Z,95800.00
2022-08-24T21:19:16.865Z,95798.09
2022-08-24T21:21:47.822Z,95796.48
2022-08-24T21:24:15.953Z,95792.52
2022-08-24T21:26:43.063Z,95794.36
2022-08-24T21:29:10.393Z,95791.29
2022-08-24T21:31:37.958Z,95794.43
2022-08-24T21:34:24.730Z,95794.48
2022-08-24T21:36:52.544Z,95792.95
2022-08-24T21:39:20.139Z,95789.51
2022-08-24T21:41:47.060Z,95786.10
2022-08-24T21:44:14.001Z,95781.16
2022-08-24T21:46:41.101Z,95779.35
2022-08-24T21:49:11.947Z,95779.60
2022-08-24T21:51:39.838Z,95780.71
2022-08-24T21:54:07.042Z,95786.62
2022-08-24T21:56:34.879Z,95785.98
2022-08-24T21:59:02.638Z,95782.98
2022-08-24T22:01:30.045Z,95783.10
2022-08-24T22:04:00.942Z,95778.61
2022-08-24T22:06:31.220Z,95774.89
2022-08-24T22:09:00.068Z,95771.55
2022-08-24T22:11:28.853Z,95775.07
2022-08-24T22:13:55.541Z,95777.74
2022-08-24T22:16:23.241Z,95776.67
2022-08-24T22:18:50.350Z,95781.46
2022-08-24T22:21:20.609Z,95778.22
2022-08-24T22:23:49.114Z,95775.39
2022-08-24T22:26:16.429Z,95774.67
2022-08-24T22:28:43.155Z,95772.06
2022-08-24T22:31:16.574Z,95772.38
2022-08-24T22:33:43.478Z,95772.73
2022-08-24T22:36:12.479Z,95771.73
2022-08-24T22:38:39.269Z,95770.92
2022-08-24T22:41:07.381Z,95769.74
2022-08-24T22:43:53.288Z,95769.99
2022-08-24T22:46:21.050Z,95769.30
2022-08-24T22:48:48.587Z,95767.83
2022-08-24T22:51:15.761Z,95765.92
2022-08-24T22:53:42.686Z,95762.49
2022-08-24T22:56:22.435Z,95758.52
2022-08-24T22:58:50.923Z,95756.00
2022-08-24T23:01:20.563Z,95752.83
2022-08-24T23:03:48.602Z,95756.02
2022-08-24T23:06:17.040Z,95754.95
2022-08-24T23:08:44.301Z,95753.73
2022-08-24T23:11:12.229Z,95754.99
2022-08-24T23:13:39.417Z,95754.43
2022-08-24T23:16:08.607Z,95749.08
2022-08-24T23:18:55.575Z,95744.58
2022-08-24T23:21:22.727Z,95739.88
2022-08-24T23:23:50.463Z,95736.70
2022-08-24T23:26:18.159Z,95731.24
2022-08-24T23:28:49.361Z,95731.52
2022-08-24T23:31:19.653Z,95734.04
2022-08-24T23:33:47.396Z,95735.60
2022-08-24T23:36:17.655Z,95738.79
2022-08-24T23:38:44.589Z,95734.83
2022-08-24T23:41:15.414Z,95738.04
2022-08-24T23:43:42.969Z,95734.01
2022-08-24T23:46:11.381Z,95731.90
2022-08-24T23:48:39.921Z,95730.59
2022-08-24T23:51:08.438Z,95728.80
2022-08-24T23:53:35.873Z,95731.96
2022-08-24T23:56:08.453Z,95728.53
2022-08-24T23:58:36.435Z,95725.41
